Time;durP1;ratioP1;P1;durP2;ratioP2;P2;SDS_P1;SDS_P2;PMS_P1;PMS_P2;Temp;Humidity;BMP_temperature;BMP_pressure;BME280_temperature;BME280_humidity;BME280_pressure;Samples;Min_cycle;Max_cycle;Signal;HPM_P1;HPM_P2
2023/09/02 00:02:03;;;;;;;35.60;34.50;;;21.70;93.90;;;;;;5073804;28;20769;-47
2023/09/02 00:04:30;;;;;;;34.20;33.13;;;21.70;93.90;;;;;;5073468;28;20443;-48
2023/09/02 00:06:57;;;;;;;33.00;32.00;;;21.70;93.90;;;;;;5073317;28;20491;-47
2023/09/02 00:09:24;;;;;;;36.03;34.93;;;21.70;93.90;;;;;;5073488;28;20475;-48
2023/09/02 00:11:51;;;;;;;34.27;33.27;;;21.70;94.00;;;;;;5073586;28;20860;-47
2023/09/02 00:14:18;;;;;;;34.10;33.10;;;21.70;94.00;;;;;;5073333;28;20497;-48
2023/09/02 00:16:46;;;;;;;33.90;32.90;;;21.70;94.00;;;;;;5073204;28;20487;-50
2023/09/02 00:19:13;;;;;;;33.63;32.60;;;21.70;94.00;;;;;;5073209;28;20467;-51
2023/09/02 00:21:40;;;;;;;33.43;32.40;;;21.70;94.00;;;;;;5073575;28;20487;-49
2023/09/02 00:24:07;;;;;;;33.00;32.00;;;21.70;94.00;;;;;;5073359;28;20501;-48
2023/09/02 00:26:35;;;;;;;33.10;32.07;;;21.70;94.00;;;;;;5072824;28;21073;-48
2023/09/02 00:29:02;;;;;;;33.07;32.07;;;21.70;94.00;;;;;;5073049;28;20827;-48
2023/09/02 00:31:29;;;;;;;34.20;33.20;;;21.70;94.00;;;;;;5073335;28;20467;-48
2023/09/02 00:33:57;;;;;;;32.87;31.87;;;21.70;94.00;;;;;;5072961;28;20459;-49
2023/09/02 00:36:24;;;;;;;35.83;34.73;;;21.70;94.00;;;;;;5072769;28;20491;-48
2023/09/02 00:38:51;;;;;;;34.60;33.50;;;21.70;94.00;;;;;;5072978;28;20439;-48
2023/09/02 00:41:26;;;;;;;34.30;33.30;;;21.70;94.00;;;;;;5072823;28;20463;-48
2023/09/02 00:43:55;;;;;;;35.07;33.97;;;21.60;94.00;;;;;;5072965;28;20477;-48
2023/09/02 00:46:23;;;;;;;36.97;35.87;;;21.70;94.00;;;;;;5064734;28;20486;-48
2023/09/02 00:48:50;;;;;;;34.50;33.40;;;21.60;94.00;;;;;;5072688;28;20478;-48
2023/09/02 00:51:18;;;;;;;36.43;35.23;;;21.60;94.10;;;;;;5072741;28;20887;-49
2023/09/02 00:53:45;;;;;;;33.63;32.53;;;21.60;94.00;;;;;;5072565;28;20467;-48
2023/09/02 00:56:13;;;;;;;34.03;33.03;;;21.60;94.00;;;;;;5072274;28;20455;-52
2023/09/02 00:58:40;;;;;;;34.20;33.13;;;21.60;94.00;;;;;;5072626;28;20485;-48
2023/09/02 01:01:07;;;;;;;34.40;33.30;;;21.60;94.00;;;;;;5072365;28;20974;-48
2023/09/02 01:03:35;;;;;;;33.37;31.97;;;21.60;94.00;;;;;;5072491;28;20903;-46
2023/09/02 01:06:03;;;;;;;33.60;32.50;;;21.60;94.10;;;;;;5072070;28;20439;-48
2023/09/02 01:08:31;;;;;;;36.83;35.63;;;21.60;94.10;;;;;;5072366;28;20575;-49
2023/09/02 01:10:59;;;;;;;32.63;31.63;;;21.60;94.10;;;;;;5072184;28;20966;-48
2023/09/02 01:13:26;;;;;;;35.07;34.07;;;21.70;94.10;;;;;;5072405;28;20443;-48
2023/09/02 01:15:54;;;;;;;34.33;33.33;;;21.60;94.00;;;;;;5072072;28;20463;-49
2023/09/02 01:18:21;;;;;;;35.03;34.03;;;21.60;94.00;;;;;;5072058;28;20432;-48
2023/09/02 01:21:10;;;;;;;33.60;32.60;;;21.60;94.00;;;;;;5072222;28;20432;-48
2023/09/02 01:24:16;;;;;;;33.67;32.67;;;21.60;94.00;;;;;;5066096;28;20448;-48
2023/09/02 01:27:12;;;;;;;32.57;31.57;;;21.60;94.00;;;;;;5045463;28;20503;-48
2023/09/02 01:29:44;;;;;;;34.83;33.83;;;21.60;94.10;;;;;;5064972;28;20857;-49
2023/09/02 01:32:14;;;;;;;33.07;32.07;;;21.60;94.10;;;;;;5071841;28;20927;-48
2023/09/02 01:34:42;;;;;;;34.10;33.00;;;21.60;94.10;;;;;;5071687;28;20470;-48
2023/09/02 01:37:10;;;;;;;34.77;33.63;;;21.60;94.10;;;;;;5071765;28;20516;-49
2023/09/02 01:39:38;;;;;;;33.10;32.10;;;21.60;94.20;;;;;;5072011;28;20478;-48
2023/09/02 01:42:08;;;;;;;34.23;33.23;;;21.60;94.10;;;;;;5071743;28;20795;-48
2023/09/02 01:44:36;;;;;;;34.13;33.13;;;21.60;94.10;;;;;;5071544;28;20443;-51
2023/09/02 01:47:03;;;;;;;34.70;33.70;;;21.60;94.20;;;;;;5071490;28;21534;-48
2023/09/02 01:49:31;;;;;;;34.70;33.60;;;21.60;94.20;;;;;;5071551;28;20525;-47
2023/09/02 01:51:58;;;;;;;34.50;33.40;;;21.60;94.10;;;;;;5071692;28;20501;-48
2023/09/02 01:54:26;;;;;;;34.03;33.03;;;21.60;94.10;;;;;;5063561;28;20468;-47
2023/09/02 01:56:54;;;;;;;34.00;33.00;;;21.60;94.20;;;;;;5071644;28;20524;-47
2023/09/02 01:59:22;;;;;;;34.13;33.13;;;21.60;94.20;;;;;;5071486;28;20807;-49
2023/09/02 02:01:49;;;;;;;34.40;33.40;;;21.60;94.10;;;;;;5071507;28;20875;-48
2023/09/02 02:04:24;;;;;;;34.97;33.87;;;21.60;94.10;;;;;;5071399;28;20471;-50
2023/09/02 02:06:56;;;;;;;36.10;35.00;;;21.60;94.10;;;;;;5071662;28;20482;-47
2023/09/02 02:09:30;;;;;;;35.80;34.70;;;21.60;94.10;;;;;;5071282;28;20506;-47
2023/09/02 02:11:58;;;;;;;35.27;34.27;;;21.60;94.20;;;;;;5071453;28;20509;-47
2023/09/02 02:14:26;;;;;;;36.83;35.63;;;21.60;94.20;;;;;;5062404;28;20466;-51
2023/09/02 02:16:53;;;;;;;34.97;33.97;;;21.60;94.20;;;;;;5071275;28;20490;-47
2023/09/02 02:19:20;;;;;;;36.70;35.60;;;21.60;94.20;;;;;;5071450;28;20917;-47
2023/09/02 02:21:46;;;;;;;36.87;35.77;;;21.60;94.20;;;;;;5071277;28;20467;-47
2023/09/02 02:24:14;;;;;;;34.90;33.80;;;21.60;94.20;;;;;;5071179;28;20474;-47
2023/09/02 02:26:41;;;;;;;34.83;33.73;;;21.60;94.10;;;;;;5070941;28;20604;-48
2023/09/02 02:29:08;;;;;;;35.03;33.93;;;21.60;94.20;;;;;;5071231;28;20503;-47
2023/09/02 02:31:36;;;;;;;34.43;33.33;;;21.60;94.10;;;;;;5071285;28;20482;-47
2023/09/02 02:34:03;;;;;;;33.47;32.47;;;21.60;94.20;;;;;;5071054;28;20988;-47
2023/09/02 02:36:30;;;;;;;45.80;44.30;;;21.60;94.20;;;;;;5070929;28;20486;-49
2023/09/02 02:38:57;;;;;;;45.20;43.80;;;21.60;94.20;;;;;;5071110;28;20486;-47
2023/09/02 02:41:24;;;;;;;36.63;35.50;;;21.60;94.20;;;;;;5071022;28;20439;-48
2023/09/02 02:43:51;;;;;;;34.47;33.47;;;21.60;94.20;;;;;;5071050;28;20474;-48
2023/09/02 02:46:18;;;;;;;35.30;34.20;;;21.60;94.20;;;;;;5070729;28;20464;-47
2023/09/02 02:48:46;;;;;;;34.40;33.40;;;21.60;94.20;;;;;;5070935;28;20558;-47
2023/09/02 02:51:13;;;;;;;33.17;32.17;;;21.60;94.10;;;;;;5070982;28;20562;-48
2023/09/02 02:53:40;;;;;;;34.63;33.63;;;21.60;94.20;;;;;;5070964;28;20475;-47
2023/09/02 02:56:07;;;;;;;33.80;32.80;;;21.60;94.20;;;;;;5070611;28;20467;-48
2023/09/02 02:58:34;;;;;;;33.37;32.37;;;21.60;94.20;;;;;;5070852;28;20467;-47
2023/09/02 03:01:05;;;;;;;34.30;33.20;;;21.60;94.20;;;;;;5070720;28;20515;-48
2023/09/02 03:03:32;;;;;;;34.20;33.20;;;21.60;94.20;;;;;;5070935;28;20439;-49
2023/09/02 03:06:01;;;;;;;36.33;35.23;;;21.60;94.20;;;;;;5070558;28;20997;-47
2023/09/02 03:08:28;;;;;;;37.37;36.27;;;21.60;94.20;;;;;;5062788;28;20601;-49
2023/09/02 03:10:58;;;;;;;38.43;37.23;;;21.60;94.20;;;;;;5070793;28;20471;-51
2023/09/02 03:13:25;;;;;;;42.43;41.13;;;21.60;94.20;;;;;;5070786;28;20443;-49
2023/09/02 03:15:54;;;;;;;46.87;45.37;;;21.50;94.10;;;;;;5070498;28;20467;-48
2023/09/02 03:18:21;;;;;;;35.13;34.03;;;21.50;94.20;;;;;;5070663;28;20471;-47
2023/09/02 03:20:47;;;;;;;36.23;35.13;;;21.50;94.20;;;;;;5070662;28;20467;-47
2023/09/02 03:23:16;;;;;;;37.87;36.47;;;21.50;94.20;;;;;;5070650;28;20479;-47
2023/09/02 03:25:42;;;;;;;34.93;33.83;;;21.50;94.10;;;;;;5073240;28;20901;-47
2023/09/02 03:28:09;;;;;;;36.43;35.33;;;21.50;94.10;;;;;;5073897;28;20517;-48
2023/09/02 03:30:37;;;;;;;36.43;35.33;;;21.60;94.20;;;;;;5074335;28;20471;-47
2023/09/02 03:33:04;;;;;;;37.50;36.30;;;21.50;94.50;;;;;;5074116;28;20879;-47
2023/09/02 03:35:37;;;;;;;37.50;36.40;;;21.50;94.10;;;;;;5073931;28;20463;-50
2023/09/02 03:38:04;;;;;;;36.83;35.73;;;21.50;94.20;;;;;;5073999;28;20491;-48
2023/09/02 03:40:32;;;;;;;36.30;35.20;;;21.50;94.10;;;;;;5074122;28;20468;-47
2023/09/02 03:42:59;;;;;;;35.17;34.07;;;21.50;94.20;;;;;;5074132;28;20467;-48
2023/09/02 03:45:26;;;;;;;36.33;35.23;;;21.60;94.20;;;;;;5073625;28;20478;-48
2023/09/02 03:47:53;;;;;;;35.27;34.17;;;21.50;94.20;;;;;;5073988;28;20528;-47
2023/09/02 03:50:27;;;;;;;34.37;33.37;;;21.50;94.20;;;;;;5073698;28;20558;-49
2023/09/02 03:52:53;;;;;;;34.93;33.83;;;21.60;94.20;;;;;;5074196;28;20477;-47
2023/09/02 03:55:20;;;;;;;36.53;35.43;;;21.50;94.10;;;;;;5073470;28;20471;-47
2023/09/02 03:57:48;;;;;;;38.93;37.73;;;21.50;94.20;;;;;;5073680;28;20500;-47
2023/09/02 04:00:17;;;;;;;38.00;36.80;;;21.50;94.20;;;;;;5073651;28;20846;-48
2023/09/02 04:02:44;;;;;;;39.13;37.93;;;21.50;94.20;;;;;;5073904;28;20443;-48
2023/09/02 04:05:11;;;;;;;37.33;36.23;;;21.50;94.10;;;;;;5073373;28;20471;-47
2023/09/02 04:07:38;;;;;;;37.17;36.07;;;21.50;94.10;;;;;;5073589;28;20728;-47
2023/09/02 04:10:06;;;;;;;37.93;36.73;;;21.50;94.10;;;;;;5073489;28;20507;-47
2023/09/02 04:12:34;;;;;;;36.73;35.63;;;21.50;94.10;;;;;;5073615;28;20471;-48
2023/09/02 04:15:03;;;;;;;37.40;36.30;;;21.50;94.10;;;;;;5073403;28;20436;-47
2023/09/02 04:17:30;;;;;;;39.73;38.53;;;21.60;94.20;;;;;;5065240;28;20458;-49
2023/09/02 04:20:00;;;;;;;38.30;37.10;;;21.50;94.20;;;;;;5073635;28;20435;-47
2023/09/02 04:22:28;;;;;;;39.40;38.20;;;21.50;94.20;;;;;;5073435;28;20929;-47
2023/09/02 04:24:56;;;;;;;42.53;41.23;;;21.50;94.20;;;;;;5073079;28;20478;-48
2023/09/02 04:27:23;;;;;;;43.80;42.40;;;21.50;94.20;;;;;;5073369;28;20818;-48
2023/09/02 04:29:50;;;;;;;41.23;39.93;;;21.50;94.20;;;;;;5073092;28;20904;-47
2023/09/02 04:32:18;;;;;;;43.63;42.33;;;21.50;94.20;;;;;;5072980;28;20943;-47
2023/09/02 04:34:46;;;;;;;42.17;40.90;;;21.50;94.20;;;;;;5072890;28;20467;-48
2023/09/02 04:37:13;;;;;;;40.53;39.33;;;21.50;94.20;;;;;;5072449;28;20933;-50
2023/09/02 04:39:40;;;;;;;37.83;36.63;;;21.50;94.20;;;;;;5073107;28;20467;-47
2023/09/02 04:42:07;;;;;;;41.00;39.70;;;21.50;94.20;;;;;;5072792;28;20978;-49
2023/09/02 04:44:34;;;;;;;39.20;38.00;;;21.50;94.20;;;;;;5072831;28;20870;-47
2023/09/02 04:47:01;;;;;;;37.60;36.50;;;21.50;94.20;;;;;;5072954;28;20455;-49
2023/09/02 04:49:29;;;;;;;37.70;36.50;;;21.50;94.20;;;;;;5072761;28;20510;-47
2023/09/02 04:51:56;;;;;;;42.80;41.50;;;21.50;94.20;;;;;;5072693;28;20463;-49
2023/09/02 04:54:23;;;;;;;39.23;38.03;;;21.50;94.20;;;;;;5072681;28;20479;-50
2023/09/02 04:56:50;;;;;;;39.70;38.50;;;21.50;94.20;;;;;;5072307;28;20467;-48
2023/09/02 04:59:17;;;;;;;40.63;39.43;;;21.50;94.20;;;;;;5072472;28;20474;-48
2023/09/02 05:01:44;;;;;;;39.57;38.37;;;21.50;94.20;;;;;;5072634;28;20939;-48
2023/09/02 05:04:11;;;;;;;42.27;40.97;;;21.50;94.20;;;;;;5072359;28;20885;-50
2023/09/02 05:06:39;;;;;;;43.70;42.40;;;21.50;94.20;;;;;;5072281;28;20895;-48
2023/09/02 05:09:07;;;;;;;42.70;41.40;;;21.50;94.20;;;;;;5072233;28;20993;-47
2023/09/02 05:11:34;;;;;;;43.60;42.20;;;21.50;94.20;;;;;;5072420;28;20471;-48
2023/09/02 05:14:00;;;;;;;43.03;41.73;;;21.50;94.20;;;;;;5072297;28;20564;-49
2023/09/02 05:16:27;;;;;;;41.70;40.40;;;21.50;94.30;;;;;;5072021;28;20513;-50
2023/09/02 05:18:54;;;;;;;40.00;38.80;;;21.50;94.20;;;;;;5072431;28;20436;-48
2023/09/02 05:21:21;;;;;;;42.00;40.70;;;21.50;94.20;;;;;;5072124;28;20531;-49
2023/09/02 05:23:50;;;;;;;40.60;39.40;;;21.50;94.20;;;;;;5072267;28;20443;-47
2023/09/02 05:26:17;;;;;;;42.20;40.90;;;21.50;94.30;;;;;;5071600;28;21014;-49
2023/09/02 05:28:43;;;;;;;42.40;41.10;;;21.50;94.20;;;;;;5072194;28;20494;-50
2023/09/02 05:31:10;;;;;;;43.10;41.80;;;21.50;94.30;;;;;;5072089;28;20479;-48
2023/09/02 05:33:37;;;;;;;43.20;41.90;;;21.50;94.20;;;;;;5071970;28;20451;-48
2023/09/02 05:36:05;;;;;;;42.97;41.67;;;21.50;94.20;;;;;;5071685;28;20463;-49
2023/09/02 05:38:31;;;;;;;42.50;41.20;;;21.50;94.20;;;;;;5071860;28;20435;-51
2023/09/02 05:41:00;;;;;;;41.17;39.87;;;21.50;94.20;;;;;;5071768;28;20474;-50
2023/09/02 05:43:28;;;;;;;41.80;40.50;;;21.50;94.30;;;;;;5071639;28;20448;-50
2023/09/02 05:45:57;;;;;;;41.23;39.93;;;21.50;94.20;;;;;;5071646;28;20466;-48
2023/09/02 05:48:24;;;;;;;42.90;41.50;;;21.50;94.20;;;;;;5070788;28;20475;-48
2023/09/02 05:50:51;;;;;;;44.27;42.87;;;21.50;94.30;;;;;;5071730;28;20479;-48
2023/09/02 05:53:18;;;;;;;44.00;42.50;;;21.50;94.30;;;;;;5071500;28;20440;-48
2023/09/02 05:55:54;;;;;;;45.50;44.10;;;21.50;94.30;;;;;;5071536;28;20478;-48
2023/09/02 05:58:23;;;;;;;43.83;42.43;;;21.50;94.30;;;;;;5071512;28;20447;-49
2023/09/02 06:00:49;;;;;;;45.37;43.97;;;21.50;94.30;;;;;;5071533;28;20466;-49
2023/09/02 06:03:16;;;;;;;48.23;46.73;;;21.50;94.30;;;;;;5071418;28;20471;-50
2023/09/02 06:05:43;;;;;;;48.30;46.80;;;21.50;94.30;;;;;;5071403;28;20467;-48
2023/09/02 06:08:10;;;;;;;47.20;45.70;;;21.50;94.30;;;;;;5071288;28;20487;-48
2023/09/02 06:10:37;;;;;;;46.70;45.20;;;21.50;94.30;;;;;;5071254;28;20857;-48
2023/09/02 06:13:04;;;;;;;48.97;47.37;;;21.50;94.30;;;;;;5071431;28;20467;-49
2023/09/02 06:15:32;;;;;;;46.70;45.20;;;21.50;94.30;;;;;;5071146;28;20476;-51
2023/09/02 06:18:01;;;;;;;45.17;43.67;;;21.50;94.30;;;;;;5071441;28;20491;-49
2023/09/02 06:20:28;;;;;;;44.00;42.60;;;21.50;94.30;;;;;;5071211;28;20474;-48
2023/09/02 06:22:55;;;;;;;46.20;44.70;;;21.50;94.30;;;;;;5071195;28;20474;-48
2023/09/02 06:25:22;;;;;;;45.97;44.47;;;21.50;94.40;;;;;;5071043;28;20480;-49
2023/09/02 06:27:48;;;;;;;42.90;41.50;;;21.50;94.30;;;;;;5071077;28;20845;-51
2023/09/02 06:30:15;;;;;;;47.17;45.67;;;21.50;94.30;;;;;;5070917;28;20503;-51
2023/09/02 06:32:43;;;;;;;44.70;43.30;;;21.50;94.40;;;;;;5071341;28;20224;-50
2023/09/02 06:35:14;;;;;;;43.63;42.33;;;21.50;94.40;;;;;;5070949;28;20943;-50
2023/09/02 06:37:41;;;;;;;46.57;45.10;;;21.50;94.30;;;;;;5071131;28;20459;-50
2023/09/02 06:40:09;;;;;;;46.53;45.13;;;21.50;94.30;;;;;;5071114;28;20875;-51
2023/09/02 06:42:36;;;;;;;47.63;46.13;;;21.40;94.30;;;;;;5063100;28;20490;-54
2023/09/02 06:45:03;;;;;;;48.30;46.80;;;21.50;94.30;;;;;;5071000;28;20442;-50
2023/09/02 06:47:30;;;;;;;41.87;40.57;;;21.50;94.40;;;;;;5070916;28;20463;-50
2023/09/02 06:49:58;;;;;;;41.70;40.40;;;21.40;94.30;;;;;;5070902;28;20562;-51
2023/09/02 06:52:25;;;;;;;43.00;41.60;;;21.40;94.30;;;;;;5070906;28;20471;-52
2023/09/02 06:54:52;;;;;;;39.43;38.20;;;21.40;94.30;;;;;;5070770;28;20555;-53
2023/09/02 06:57:19;;;;;;;40.10;38.80;;;21.40;94.40;;;;;;5070710;28;20993;-50
2023/09/02 06:59:46;;;;;;;44.17;42.77;;;21.50;94.40;;;;;;5072372;28;20520;-50
2023/09/02 07:02:13;;;;;;;46.97;45.47;;;21.40;94.30;;;;;;5074853;28;20471;-52
2023/09/02 07:04:39;;;;;;;46.83;45.37;;;21.40;94.40;;;;;;5074733;28;20467;-52
2023/09/02 07:07:08;;;;;;;43.73;42.33;;;21.50;94.40;;;;;;5074757;28;20454;-50
2023/09/02 07:09:35;;;;;;;42.00;40.63;;;21.50;94.40;;;;;;5074585;28;20506;-52
2023/09/02 07:12:02;;;;;;;43.30;41.93;;;21.40;94.30;;;;;;5074907;28;20475;-51
2023/09/02 07:14:29;;;;;;;46.67;45.17;;;21.40;94.30;;;;;;5074351;28;20447;-53
2023/09/02 07:16:56;;;;;;;41.90;40.60;;;21.40;94.40;;;;;;5074674;28;20455;-50
2023/09/02 07:19:23;;;;;;;43.57;42.17;;;21.40;94.40;;;;;;5074501;28;20817;-50
2023/09/02 07:21:50;;;;;;;44.97;43.47;;;21.40;94.30;;;;;;5074572;28;21003;-50
2023/09/02 07:24:19;;;;;;;44.90;43.40;;;21.40;94.30;;;;;;5074270;28;20474;-51
2023/09/02 07:26:45;;;;;;;47.60;46.10;;;21.50;94.40;;;;;;5074105;28;20495;-50
2023/09/02 07:29:12;;;;;;;47.20;45.70;;;21.50;94.40;;;;;;5074086;28;20473;-50
2023/09/02 07:31:40;;;;;;;45.73;44.33;;;21.40;94.30;;;;;;5074324;28;20492;-52
2023/09/02 07:34:07;;;;;;;46.40;44.90;;;21.40;94.60;;;;;;5074364;28;20935;-51
2023/09/02 07:36:34;;;;;;;45.97;44.47;;;21.50;94.40;;;;;;5073865;28;20842;-52
2023/09/02 07:39:01;;;;;;;47.63;46.13;;;21.50;94.40;;;;;;5074216;28;20463;-50
2023/09/02 07:41:29;;;;;;;44.83;43.43;;;21.50;94.40;;;;;;5074222;28;20439;-51
2023/09/02 07:43:56;;;;;;;46.27;44.77;;;21.50;94.40;;;;;;5074091;28;20482;-50
2023/09/02 07:46:23;;;;;;;43.57;42.17;;;21.50;94.40;;;;;;5073747;28;20482;-50
2023/09/02 07:48:50;;;;;;;45.63;44.13;;;21.40;94.30;;;;;;5074055;28;20463;-51
2023/09/02 07:51:17;;;;;;;43.80;42.40;;;21.50;94.40;;;;;;5073760;28;21071;-52
2023/09/02 07:53:45;;;;;;;47.43;45.93;;;21.40;94.30;;;;;;5073947;28;20471;-50
2023/09/02 07:56:11;;;;;;;48.00;46.40;;;21.40;94.30;;;;;;5073733;28;20486;-50
2023/09/02 07:58:42;;;;;;;49.63;48.00;;;21.50;94.40;;;;;;5065646;28;20494;-50
2023/09/02 08:01:09;;;;;;;48.83;47.23;;;21.50;94.40;;;;;;5073939;28;20442;-51
2023/09/02 08:03:36;;;;;;;46.50;45.00;;;21.50;94.40;;;;;;5073629;28;20463;-51
2023/09/02 08:06:06;;;;;;;44.43;43.03;;;21.50;94.40;;;;;;5073375;28;20475;-51
2023/09/02 08:08:33;;;;;;;47.50;46.00;;;21.50;94.40;;;;;;5073665;28;20449;-50
2023/09/02 08:11:04;;;;;;;48.60;47.00;;;21.50;94.40;;;;;;5072675;28;20893;-51
2023/09/02 08:13:31;;;;;;;49.00;47.40;;;21.50;94.30;;;;;;5073504;28;20965;-49
2023/09/02 08:15:59;;;;;;;50.70;49.07;;;21.50;94.40;;;;;;5073224;28;20478;-51
2023/09/02 08:18:26;;;;;;;46.53;45.03;;;21.50;94.30;;;;;;5073373;28;20530;-50
2023/09/02 08:20:53;;;;;;;42.80;41.40;;;21.50;94.30;;;;;;5073419;28;20435;-51
2023/09/02 08:23:20;;;;;;;47.73;46.13;;;21.50;94.30;;;;;;5073432;28;20478;-51
2023/09/02 08:25:47;;;;;;;43.80;42.40;;;21.50;94.40;;;;;;5073076;28;20467;-51
2023/09/02 08:28:14;;;;;;;46.40;44.90;;;21.50;94.30;;;;;;5073294;28;20482;-50
2023/09/02 08:30:41;;;;;;;41.40;40.10;;;21.50;94.30;;;;;;5065135;28;20503;-52
2023/09/02 08:33:09;;;;;;;44.30;42.90;;;21.50;94.40;;;;;;5073188;28;20516;-51
2023/09/02 08:35:37;;;;;;;47.40;45.90;;;21.50;94.30;;;;;;5072767;28;20491;-51
2023/09/02 08:38:04;;;;;;;45.93;44.43;;;21.50;94.30;;;;;;5073116;28;20498;-50
2023/09/02 08:40:32;;;;;;;45.97;44.37;;;21.50;94.30;;;;;;5072946;28;20474;-49
2023/09/02 08:43:02;;;;;;;46.63;45.13;;;21.50;94.30;;;;;;5072850;28;20486;-53
2023/09/02 08:45:30;;;;;;;45.20;43.73;;;21.50;94.30;;;;;;5072621;28;20444;-51
2023/09/02 08:48:01;;;;;;;44.60;43.10;;;21.50;94.30;;;;;;5072812;28;20550;-50
2023/09/02 08:50:30;;;;;;;43.87;42.47;;;21.50;94.30;;;;;;5072609;28;20557;-50
2023/09/02 08:52:58;;;;;;;46.67;45.17;;;21.50;94.30;;;;;;5072719;28;20467;-51
2023/09/02 08:55:27;;;;;;;45.63;44.13;;;21.50;94.40;;;;;;5072535;28;20471;-51
2023/09/02 08:57:55;;;;;;;46.57;45.07;;;21.50;94.30;;;;;;5072602;28;20474;-52
2023/09/02 09:00:22;;;;;;;45.43;43.93;;;21.50;94.30;;;;;;5072506;28;20435;-52
2023/09/02 09:02:49;;;;;;;49.40;47.80;;;21.50;94.30;;;;;;5072592;28;20467;-50
2023/09/02 09:05:16;;;;;;;48.53;46.93;;;21.50;94.30;;;;;;5072284;28;20482;-51
2023/09/02 09:07:46;;;;;;;47.73;46.23;;;21.50;94.30;;;;;;5072413;28;20494;-51
2023/09/02 09:10:18;;;;;;;46.40;44.80;;;21.50;94.30;;;;;;5072321;28;20510;-50
2023/09/02 09:12:51;;;;;;;48.87;47.33;;;21.50;94.30;;;;;;5064701;28;20850;-50
2023/09/02 09:15:18;;;;;;;45.60;44.13;;;21.50;94.30;;;;;;5072308;28;20471;-52
2023/09/02 09:17:45;;;;;;;50.03;48.43;;;21.50;94.30;;;;;;5072381;28;20463;-50
2023/09/02 09:20:14;;;;;;;48.13;46.53;;;21.50;94.30;;;;;;5072123;28;20470;-52
2023/09/02 09:22:41;;;;;;;50.83;49.13;;;21.50;94.30;;;;;;5063793;28;20431;-50
2023/09/02 09:25:10;;;;;;;47.60;46.07;;;21.50;94.40;;;;;;5071950;28;20477;-51
2023/09/02 09:27:37;;;;;;;47.17;45.67;;;21.50;94.30;;;;;;5071749;28;20502;-50
2023/09/02 09:30:05;;;;;;;47.40;45.90;;;21.50;94.30;;;;;;5071826;28;20471;-51
2023/09/02 09:32:32;;;;;;;45.63;44.13;;;21.50;94.40;;;;;;5071880;28;20531;-50
2023/09/02 09:34:59;;;;;;;46.50;45.00;;;21.50;94.30;;;;;;5071638;28;20436;-51
2023/09/02 09:37:26;;;;;;;48.70;47.10;;;21.50;94.30;;;;;;5071812;28;20463;-52
2023/09/02 09:39:53;;;;;;;44.23;42.73;;;21.50;94.40;;;;;;5071964;28;20918;-53
2023/09/02 09:42:35;;;;;;;45.37;43.87;;;21.50;94.40;;;;;;5071620;28;20444;-49
2023/09/02 09:45:03;;;;;;;44.10;42.63;;;21.50;94.40;;;;;;5071739;28;20946;-51
2023/09/02 09:47:30;;;;;;;46.90;45.40;;;21.50;94.40;;;;;;5071510;28;20490;-53
2023/09/02 09:50:13;;;;;;;41.63;40.30;;;21.50;94.40;;;;;;5071506;28;20478;-50
2023/09/02 09:52:40;;;;;;;47.70;46.10;;;21.50;94.40;;;;;;5071656;28;20439;-52
2023/09/02 09:55:22;;;;;;;48.33;46.73;;;21.50;94.40;;;;;;5071419;28;20463;-51
2023/09/02 09:57:53;;;;;;;47.83;46.33;;;21.50;94.40;;;;;;5064152;28;21009;-50
2023/09/02 10:00:21;;;;;;;45.37;43.87;;;21.60;94.50;;;;;;5071387;28;20475;-52
2023/09/02 10:02:51;;;;;;;46.47;44.97;;;21.50;94.40;;;;;;5071549;28;20475;-51
2023/09/02 10:05:24;;;;;;;46.63;45.13;;;21.60;94.50;;;;;;5071233;28;20447;-50
2023/09/02 10:08:01;;;;;;;43.93;42.53;;;21.60;94.60;;;;;;5071401;28;20892;-51
2023/09/02 10:10:30;;;;;;;44.93;43.40;;;21.60;94.60;;;;;;5071575;28;20565;-52
2023/09/02 10:12:59;;;;;;;44.13;42.73;;;21.60;94.60;;;;;;5071445;28;20435;-52
2023/09/02 10:15:26;;;;;;;44.90;43.47;;;21.60;94.60;;;;;;5071068;28;20526;-51
2023/09/02 10:17:56;;;;;;;42.90;41.50;;;21.60;94.60;;;;;;5071385;28;20517;-51
2023/09/02 10:20:26;;;;;;;45.87;44.37;;;21.50;94.50;;;;;;5071113;28;20492;-49
2023/09/02 10:22:54;;;;;;;46.63;45.13;;;21.60;94.60;;;;;;5071377;28;20446;-50
2023/09/02 10:25:25;;;;;;;46.67;45.17;;;21.60;94.60;;;;;;5070951;28;20443;-51
2023/09/02 10:28:01;;;;;;;48.33;46.73;;;21.60;94.70;;;;;;5071448;28;20473;-49
2023/09/02 10:30:32;;;;;;;44.60;43.10;;;21.60;94.70;;;;;;5070959;28;20442;-49
2023/09/02 10:33:10;;;;;;;46.40;44.90;;;21.60;94.70;;;;;;5071611;28;20604;-49
2023/09/02 10:35:42;;;;;;;48.90;47.20;;;21.60;94.70;;;;;;5070357;28;20482;-48
2023/09/02 10:38:12;;;;;;;45.67;44.17;;;21.60;94.70;;;;;;5071072;28;20501;-48
2023/09/02 10:40:41;;;;;;;45.50;43.90;;;21.60;94.70;;;;;;5071128;28;20491;-50
2023/09/02 10:43:10;;;;;;;49.00;47.40;;;21.60;94.70;;;;;;5071186;28;20467;-49
2023/09/02 10:45:39;;;;;;;43.60;42.10;;;21.60;94.70;;;;;;5070912;28;20440;-48
2023/09/02 10:48:07;;;;;;;47.67;46.07;;;21.60;94.60;;;;;;5071010;28;20491;-50
2023/09/02 10:50:35;;;;;;;46.00;44.47;;;21.60;94.60;;;;;;5070845;28;20471;-49
2023/09/02 10:53:01;;;;;;;45.03;43.53;;;21.60;94.60;;;;;;5071023;28;20526;-49
2023/09/02 10:55:31;;;;;;;49.47;47.77;;;21.60;94.60;;;;;;5070642;28;20933;-52
2023/09/02 10:58:00;;;;;;;44.33;42.83;;;21.60;94.60;;;;;;5070910;28;20977;-51
2023/09/02 11:00:29;;;;;;;46.37;44.87;;;21.60;94.60;;;;;;5070856;28;20478;-48
2023/09/02 11:02:57;;;;;;;45.93;44.43;;;21.60;94.60;;;;;;5070940;28;20493;-50
2023/09/02 11:05:24;;;;;;;42.93;41.53;;;21.60;94.60;;;;;;5070569;28;20953;-51
2023/09/02 11:07:52;;;;;;;44.03;42.53;;;21.70;94.60;;;;;;5070689;28;20456;-50
2023/09/02 11:10:20;;;;;;;44.63;43.13;;;21.60;94.60;;;;;;5071059;28;20453;-52
2023/09/02 11:13:06;;;;;;;45.80;44.30;;;21.70;94.60;;;;;;5062612;28;20554;-50
2023/09/02 11:15:35;;;;;;;45.77;44.27;;;21.70;94.60;;;;;;5070536;28;20487;-51
2023/09/02 11:18:29;;;;;;;48.70;47.10;;;21.70;94.50;;;;;;5070680;28;20451;-50
2023/09/02 11:20:57;;;;;;;49.27;47.57;;;21.70;94.60;;;;;;5050567;28;20463;-50
2023/09/02 11:23:24;;;;;;;45.00;43.50;;;21.70;94.60;;;;;;5070604;28;20461;-51
2023/09/02 11:26:02;;;;;;;47.80;46.10;;;21.70;94.60;;;;;;5070339;28;20442;-49
2023/09/02 11:28:29;;;;;;;45.70;44.20;;;21.70;94.60;;;;;;5070774;28;20568;-49
2023/09/02 11:31:08;;;;;;;47.30;45.70;;;21.70;94.60;;;;;;5070587;28;20553;-50
2023/09/02 11:33:35;;;;;;;44.83;43.33;;;21.70;94.60;;;;;;5070543;28;20843;-51
2023/09/02 11:36:07;;;;;;;46.10;44.53;;;21.70;94.60;;;;;;5070341;28;20449;-49
2023/09/02 11:38:34;;;;;;;46.17;44.57;;;21.70;94.60;;;;;;5070475;28;20483;-51
2023/09/02 11:41:02;;;;;;;47.30;45.70;;;21.70;94.60;;;;;;5070613;28;20446;-49
2023/09/02 11:43:31;;;;;;;46.87;45.27;;;21.70;94.70;;;;;;5070442;28;20537;-51
2023/09/02 11:45:59;;;;;;;46.27;44.67;;;21.70;94.70;;;;;;5070541;28;20445;-49
2023/09/02 11:48:28;;;;;;;44.50;43.00;;;21.70;94.70;;;;;;5073919;28;20447;-49
2023/09/02 11:50:58;;;;;;;43.20;41.70;;;21.80;94.70;;;;;;5073936;28;20928;-50
2023/09/02 11:53:25;;;;;;;44.97;43.37;;;21.80;95.10;;;;;;5073909;28;20723;-48
2023/09/02 11:55:52;;;;;;;46.70;45.10;;;21.80;94.80;;;;;;5073593;28;20475;-51
2023/09/02 11:58:19;;;;;;;46.47;44.93;;;21.80;94.90;;;;;;5073905;28;20482;-51
2023/09/02 12:00:47;;;;;;;47.03;45.43;;;21.80;94.90;;;;;;5073732;28;20497;-49
2023/09/02 12:03:20;;;;;;;47.50;45.90;;;21.80;94.80;;;;;;5073661;28;20482;-53
2023/09/02 12:05:50;;;;;;;48.17;46.57;;;21.80;94.80;;;;;;5073425;28;20876;-49
2023/09/02 12:08:18;;;;;;;46.60;45.07;;;21.80;94.80;;;;;;5073796;28;20527;-50
2023/09/02 12:10:46;;;;;;;46.77;45.17;;;21.80;94.80;;;;;;5073456;28;20506;-50
2023/09/02 12:13:13;;;;;;;46.10;44.60;;;21.80;94.80;;;;;;5073638;28;20471;-48
2023/09/02 12:15:40;;;;;;;46.80;45.20;;;21.90;94.80;;;;;;5073229;28;20466;-48
2023/09/02 12:18:07;;;;;;;42.60;41.20;;;21.80;94.70;;;;;;5073345;28;20490;-49
2023/09/02 12:20:35;;;;;;;45.30;43.80;;;21.90;94.80;;;;;;5073382;28;20471;-49
2023/09/02 12:23:05;;;;;;;46.63;45.07;;;21.90;94.80;;;;;;5073380;28;20919;-48
2023/09/02 12:25:33;;;;;;;46.53;45.03;;;21.90;94.80;;;;;;5073245;28;20863;-48
2023/09/02 12:28:10;;;;;;;44.30;42.90;;;21.90;94.80;;;;;;5073286;28;20467;-49
2023/09/02 12:30:38;;;;;;;50.70;49.00;;;21.90;94.80;;;;;;5073129;28;20487;-50
2023/09/02 12:33:05;;;;;;;49.47;47.77;;;21.90;94.70;;;;;;5073209;28;20636;-48
2023/09/02 12:35:32;;;;;;;46.07;44.57;;;21.90;94.70;;;;;;5072939;28;20443;-49